Time;durP1;ratioP1;P1;durP2;ratioP2;P2;SDS_P1;SDS_P2;PMS_P1;PMS_P2;Temp;Humidity;BMP_temperature;BMP_pressure;BME280_temperature;BME280_humidity;BME280_pressure;Samples;Min_cycle;Max_cycle;Signal;HPM_P1;HPM_P2
2023/04/28 00:01:21;;;;;;;;;;;9.20;99.90;;;;;;5075980;28;20295;-79
2023/04/28 00:03:48;;;;;;;;;;;9.10;99.90;;;;;;5082487;28;19920;-80
2023/04/28 00:06:15;;;;;;;;;;;;;;;;;;5066066;28;19927;-81
2023/04/28 00:08:43;;;;;;;;;;;8.90;99.90;;;;;;5082284;28;19920;-81
2023/04/28 00:11:10;;;;;;;;;;;;;;;;;;5095544;28;20355;-81
2023/04/28 00:13:37;;;;;;;;;;;;;;;;;;5079122;28;19970;-81
2023/04/28 00:16:06;;;;;;;;;;;8.90;99.90;;;;;;5079237;28;19924;-80
2023/04/28 00:18:34;;;;;;;;;;;;;;;;;;5096985;28;20402;-80
2023/04/28 00:21:01;;;;;;;;;;;;;;;;;;5078136;28;19920;-80
2023/04/28 00:23:28;;;;;;;;;;;;;;;;;;5078597;28;19924;-81
2023/04/28 00:25:56;;;;;;;;;;;9.00;99.90;;;;;;5079147;28;20379;-80
2023/04/28 00:28:23;;;;;;;;;;;;;;;;;;5078385;28;19951;-80
2023/04/28 00:30:50;;;;;;;;;;;;;;;;;;5086363;28;19935;-79
2023/04/28 00:33:19;;;;;;;;;;;8.80;99.90;;;;;;5076737;28;19924;-79
2023/04/28 00:35:46;;;;;;;;;;;;;;;;;;5077774;28;19924;-80
2023/04/28 00:38:13;;;;;;;;;;;8.80;99.90;;;;;;5078175;28;19995;-79
2023/04/28 00:40:40;;;;;;;;;;;;;;;;;;5096247;28;19930;-79
2023/04/28 00:43:07;;;;;;;;;;;8.80;99.90;;;;;;5095688;28;19924;-79
2023/04/28 00:45:34;;;;;;;;;;;;;;;;;;5077296;28;19924;-78
2023/04/28 00:48:02;;;;;;;;;;;;;;;;;;5076224;28;20001;-79
2023/04/28 00:50:29;;;;;;;;;;;;;;;;;;5074880;28;19924;-79
2023/04/28 00:52:57;;;;;;;;;;;9.00;99.90;;;;;;5075912;28;19925;-79
2023/04/28 00:55:24;;;;;;;;;;;9.00;99.90;;;;;;5066328;28;20356;-78
2023/04/28 00:57:52;;;;;;;;;;;;;;;;;;5095839;28;19920;-79
2023/04/28 01:00:19;;;;;;;;;;;;;;;;;;5077761;28;19924;-78
2023/04/28 01:02:46;;;;;;;;;;;9.10;99.90;;;;;;5077917;28;19924;-78
2023/04/28 01:05:13;;;;;;;;;;;;;;;;;;5071569;28;19928;-78
2023/04/28 01:07:40;;;;;;;;;;;9.10;99.90;;;;;;5076676;28;19981;-80
2023/04/28 01:10:08;;;;;;;;;;;;;;;;;;5081179;28;20356;-81
2023/04/28 01:12:37;;;;;;;;;;;9.10;99.90;;;;;;5080722;28;19991;-81
2023/04/28 01:15:04;;;;;;;;;;;;;;;;;;5080682;28;19928;-81
2023/04/28 01:17:32;;;;;;;;;;;;;;;;;;5081263;28;20518;-81
2023/04/28 01:20:00;;;;;;;;;;;;;;;;;;5079787;28;19930;-81
2023/04/28 01:22:28;;;;;;;;;;;;;;;;;;5069158;28;20491;-81
2023/04/28 01:24:56;;;;;;;;;;;;;;;;;;5072716;28;19929;-81
2023/04/28 01:27:28;;;;;;;;;;;8.90;99.90;;;;;;5081831;28;19945;-81
2023/04/28 01:29:56;;;;;;;;;;;;;;;;;;5095827;28;19950;-82
2023/04/28 01:32:23;;;;;;;;;;;;;;;;;;5078608;28;20358;-82
2023/04/28 01:34:51;;;;;;;;;;;;;;;;;;5078283;28;19931;-81
2023/04/28 01:37:18;;;;;;;;;;;8.70;99.90;;;;;;5096768;28;19946;-82
2023/04/28 01:39:48;;;;;;;;;;;;;;;;;;5085481;28;19931;-82
2023/04/28 01:42:16;;;;;;;;;;;;;;;;;;5085601;28;19931;-83
2023/04/28 01:44:43;;;;;;;;;;;;;;;;;;5078983;28;19923;-82
2023/04/28 01:47:12;;;;;;;;;;;8.80;99.90;;;;;;5065346;28;20202;-83
2023/04/28 01:49:39;;;;;;;;;;;;;;;;;;5075746;28;19930;-82
2023/04/28 01:52:08;;;;;;;;;;;;;;;;;;5071988;28;19931;-82
2023/04/28 01:54:36;;;;;;;;;;;;;;;;;;5075782;28;19924;-81
2023/04/28 01:57:03;;;;;;;;;;;;;;;;;;5076467;28;19924;-82
2023/04/28 01:59:31;;;;;;;;;;;8.70;99.90;;;;;;5074695;28;19923;-82
2023/04/28 02:01:58;;;;;;;;;;;8.70;99.90;;;;;;5067825;28;19928;-82
2023/04/28 02:04:30;;;;;;;;;;;8.70;99.90;;;;;;5064918;28;19924;-82
2023/04/28 02:06:58;;;;;;;;;;;;;;;;;;5093386;28;20060;-82
2023/04/28 02:09:26;;;;;;;;;;;8.80;99.90;;;;;;5077883;28;20387;-82
2023/04/28 02:11:53;;;;;;;;;;;8.90;99.90;;;;;;5076027;28;19931;-82
2023/04/28 02:14:22;;;;;;;;;;;8.90;99.90;;;;;;5075092;28;19932;-79
2023/04/28 02:16:49;;;;;;;;;;;8.90;99.90;;;;;;5076981;28;19920;-80
2023/04/28 02:19:16;;;;;;;;;;;;;;;;;;5076483;28;20330;-80
2023/04/28 02:21:48;;;;;;;;;;;9.00;99.90;;;;;;5079027;28;19908;-79
2023/04/28 02:24:15;;;;;;;;;;;;;;;;;;5097911;28;19921;-80
2023/04/28 02:26:42;;;;;;;;;;;;;;;;;;5057787;28;20011;-80
2023/04/28 02:29:09;;;;;;;;;;;;;;;;;;5055957;28;19921;-81
2023/04/28 02:31:36;;;;;;;;;;;;;;;;;;5057744;28;19946;-82
2023/04/28 02:34:04;;;;;;;;;;;;;;;;;;5075005;28;19934;-81
2023/04/28 02:36:31;;;;;;;;;;;;;;;;;;5065572;28;19920;-81
2023/04/28 02:38:59;;;;;;;;;;;9.20;99.90;;;;;;5064699;28;19966;-80
2023/04/28 02:41:28;;;;;;;;;;;;;;;;;;5088005;28;19979;-81
2023/04/28 02:43:56;;;;;;;;;;;;;;;;;;5071027;28;20281;-81
2023/04/28 02:46:22;;;;;;;;;;;9.20;99.90;;;;;;5064901;28;19925;-80
2023/04/28 02:48:49;;;;;;;;;;;9.20;99.90;;;;;;5073011;28;19924;-82
2023/04/28 02:51:17;;;;;;;;;;;;;;;;;;5074665;28;19949;-82
2023/04/28 02:53:44;;;;;;;;;;;9.10;99.90;;;;;;5063257;28;20826;-80
2023/04/28 02:56:11;;;;;;;;;;;;;;;;;;5057718;28;19924;-79
2023/04/28 02:58:39;;;;;;;;;;;9.10;99.90;;;;;;5083680;28;19908;-80
2023/04/28 03:01:06;;;;;;;;;;;9.00;99.90;;;;;;5080121;28;19924;-80
2023/04/28 03:03:33;;;;;;;;;;;9.10;99.90;;;;;;5074507;28;19924;-80
2023/04/28 03:06:00;;;;;;;;;;;9.10;99.90;;;;;;5074639;28;19962;-80
2023/04/28 03:08:28;;;;;;;;;;;;;;;;;;5074893;28;19931;-81
2023/04/28 03:10:55;;;;;;;;;;;;;;;;;;5074834;28;19943;-81
2023/04/28 03:13:23;;;;;;;;;;;;;;;;;;5073447;28;19923;-80
2023/04/28 03:15:51;;;;;;;;;;;9.30;99.90;;;;;;5074711;28;20022;-81
2023/04/28 03:18:19;;;;;;;;;;;9.30;99.90;;;;;;5090957;28;20156;-80
2023/04/28 03:20:46;;;;;;;;;;;9.40;99.90;;;;;;5081394;28;20401;-80
2023/04/28 03:23:13;;;;;;;;;;;;;;;;;;5094711;28;19970;-81
2023/04/28 03:25:41;;;;;;;;;;;;;;;;;;5076138;28;19953;-81
2023/04/28 03:28:09;;;;;;;;;;;;;;;;;;5075692;28;20014;-80
2023/04/28 03:30:36;;;;;;;;;;;9.40;99.90;;;;;;5096386;28;19959;-80
2023/04/28 03:33:03;;;;;;;;;;;;;;;;;;5080104;28;19930;-81
2023/04/28 03:35:32;;;;;;;;;;;9.40;99.90;;;;;;5079491;28;19995;-81
2023/04/28 03:37:59;;;;;;;;;;;;;;;;;;5079988;28;19930;-81
2023/04/28 03:40:26;;;;;;;;;;;9.50;99.90;;;;;;5082276;28;20011;-81
2023/04/28 03:43:26;;;;;;;;;;;;;;;;;;5053598;28;19924;-82
2023/04/28 03:46:07;;;;;;;;;;;;;;;;;;5059757;28;20471;-81
2023/04/28 03:48:34;;;;;;;;;;;;;;;;;;5058894;28;19920;-80
2023/04/28 03:51:02;;;;;;;;;;;;;;;;;;5060042;28;19924;-80
2023/04/28 03:53:30;;;;;;;;;;;9.50;99.90;;;;;;5087897;28;19926;-81
2023/04/28 03:55:57;;;;;;;;;;;9.50;99.90;;;;;;5075238;28;19959;-81
2023/04/28 03:58:24;;;;;;;;;;;9.50;99.90;;;;;;5076043;28;20018;-81
2023/04/28 04:00:51;;;;;;;;;;;9.40;99.90;;;;;;5082429;28;19923;-81
2023/04/28 04:03:20;;;;;;;;;;;;;;;;;;5096872;28;19920;-81
2023/04/28 04:05:47;;;;;;;;;;;9.50;99.90;;;;;;5078656;28;20343;-81
2023/04/28 04:08:15;;;;;;;;;;;;;;;;;;5078588;28;19928;-81
2023/04/28 04:10:42;;;;;;;;;;;;;;;;;;5082103;28;19962;-81
2023/04/28 04:13:09;;;;;;;;;;;;;;;;;;5085613;28;19996;-82
2023/04/28 04:15:37;;;;;;;;;;;9.60;99.90;;;;;;5082829;28;20027;-81
2023/04/28 04:18:05;;;;;;;;;;;;;;;;;;5101813;28;20326;-82
2023/04/28 04:20:48;;;;;;;;;;;9.70;99.90;;;;;;5102820;28;19924;-81
2023/04/28 04:23:15;;;;;;;;;;;;;;;;;;5101082;28;20309;-81
2023/04/28 04:25:43;;;;;;;;;;;;;;;;;;5102100;28;19951;-80
2023/04/28 04:28:10;;;;;;;;;;;9.80;99.90;;;;;;5098333;28;20530;-81
2023/04/28 04:30:37;;;;;;;;;;;;;;;;;;5098100;28;20011;-81
2023/04/28 04:33:05;;;;;;;;;;;;;;;;;;5089000;28;19923;-82
2023/04/28 04:35:33;;;;;;;;;;;;;;;;;;5079461;28;19924;-81
2023/04/28 04:38:02;;;;;;;;;;;9.90;99.90;;;;;;5102557;28;19930;-81
2023/04/28 04:40:30;;;;;;;;;;;;;;;;;;5083470;28;19916;-82
2023/04/28 04:42:57;;;;;;;;;;;9.90;99.90;;;;;;5084142;28;19969;-80
2023/04/28 04:45:28;;;;;;;;;;;;;;;;;;5086781;28;19924;-82
2023/04/28 04:47:55;;;;;;;;;;;;;;;;;;5086254;28;19954;-82
2023/04/28 04:50:22;;;;;;;;;;;;;;;;;;5085008;28;19923;-82
2023/04/28 04:52:50;;;;;;;;;;;;;;;;;;5082661;28;19928;-81
2023/04/28 04:55:19;;;;;;;;;;;9.90;99.90;;;;;;5084037;28;19920;-82
2023/04/28 04:57:46;;;;;;;;;;;;;;;;;;5085526;28;19916;-80
2023/04/28 05:00:43;;;;;;;;;;;;;;;;;;5048063;28;20184;-80
2023/04/28 05:03:11;;;;;;;;;;;;;;;;;;5084318;28;19924;-81
2023/04/28 05:05:40;;;;;;;;;;;9.80;99.90;;;;;;5089311;28;20027;-80
2023/04/28 05:08:16;;;;;;;;;;;9.90;99.90;;;;;;5065167;28;19927;-80
2023/04/28 05:10:43;;;;;;;;;;;;;;;;;;5086758;28;20125;-82
2023/04/28 05:13:11;;;;;;;;;;;10.00;99.90;;;;;;5088912;28;20041;-81
2023/04/28 05:15:39;;;;;;;;;;;;;;;;;;5087427;28;20369;-80
2023/04/28 05:18:29;;;;;;;;;;;;;;;;;;5082929;28;19931;-82
2023/04/28 05:20:57;;;;;;;;;;;;;;;;;;5101648;28;20486;-82
2023/04/28 05:23:25;;;;;;;;;;;;;;;;;;5097446;28;19934;-81
2023/04/28 05:26:00;;;;;;;;;;;;;;;;;;5083939;28;19973;-84
2023/04/28 05:28:27;;;;;;;;;;;;;;;;;;5093053;28;19924;-86
2023/04/28 05:30:59;;;;;;;;;;;;;;;;;;5091294;28;19924;-85
2023/04/28 05:33:27;;;;;;;;;;;10.40;99.90;;;;;;5093383;28;19970;-85
2023/04/28 05:35:55;;;;;;;;;;;10.50;99.90;;;;;;5093419;28;19935;-84
2023/04/28 05:38:23;;;;;;;;;;;;;;;;;;5090380;28;19977;-86
2023/04/28 05:40:52;;;;;;;;;;;10.60;99.90;;;;;;5069758;28;19948;-83
2023/04/28 05:43:20;;;;;;;;;;;10.70;99.90;;;;;;5091064;28;19923;-80
2023/04/28 05:45:51;;;;;;;;;;;;;;;;;;5092908;28;19920;-82
2023/04/28 05:48:19;;;;;;;;;;;10.70;99.90;;;;;;5091634;28;19926;-81
2023/04/28 05:50:50;;;;;;;;;;;10.80;99.90;;;;;;5091462;28;19920;-82
2023/04/28 05:53:17;;;;;;;;;;;10.80;99.90;;;;;;5089115;28;20211;-81
2023/04/28 05:55:44;;;;;;;;;;;;;;;;;;5087296;28;19942;-81
2023/04/28 05:58:12;;;;;;;;;;;11.00;99.90;;;;;;5086427;28;19930;-81
2023/04/28 06:00:39;;;;;;;;;;;11.10;99.90;;;;;;5088282;28;19904;-81
2023/04/28 06:03:09;;;;;;;;;;;;;;;;;;5087193;28;19976;-81
2023/04/28 06:05:37;;;;;;;;;;;;;;;;;;5087375;28;19920;-80
2023/04/28 06:08:07;;;;;;;;;;;11.40;99.90;;;;;;5087621;28;20022;-80
2023/04/28 06:10:34;;;;;;;;;;;;;;;;;;5091405;28;20423;-80
2023/04/28 06:13:05;;;;;;;;;;;;;;;;;;5095238;28;20062;-81
2023/04/28 06:15:32;;;;;;;;;;;;;;;;;;5105446;28;19924;-82
2023/04/28 06:18:00;;;;;;;;;;;11.40;99.90;;;;;;5094521;28;19935;-81
2023/04/28 06:20:27;;;;;;;;;;;;;;;;;;5086960;28;19928;-81
2023/04/28 06:22:54;;;;;;;;;;;11.70;99.90;;;;;;5086579;28;19924;-81
2023/04/28 06:25:23;;;;;;;;;;;11.90;99.90;;;;;;5080979;28;19928;-79
2023/04/28 06:27:50;;;;;;;;;;;;;;;;;;5064535;28;19928;-77
2023/04/28 06:30:22;;;;;;;;;;;;;;;;;;5084320;28;20395;-79
2023/04/28 06:32:49;;;;;;;;;;;;;;;;;;5069646;28;20105;-78
2023/04/28 06:35:16;;;;;;;;;;;;;;;;;;5073138;28;20263;-78
2023/04/28 06:37:44;;;;;;;;;;;;;;;;;;5074944;28;19935;-79
2023/04/28 06:40:12;;;;;;;;;;;;;;;;;;5072461;28;19939;-76
2023/04/28 06:42:43;;;;;;;;;;;;;;;;;;5074640;28;19931;-76
2023/04/28 06:45:12;;;;;;;;;;;;;;;;;;5061591;28;19928;-78
2023/04/28 06:47:39;;;;;;;;;;;;;;;;;;5056965;28;20345;-78
2023/04/28 06:50:09;;;;;;;;;;;;;;;;;;5070036;28;19936;-79
2023/04/28 06:52:37;;;;;;;;;;;;;;;;;;5073167;28;19954;-78
2023/04/28 06:55:08;;;;;;;;;;;13.60;99.90;;;;;;5069248;28;19928;-77
2023/04/28 06:57:36;;;;;;;;;;;13.90;99.90;;;;;;5073637;28;19932;-78
2023/04/28 07:00:04;;;;;;;;;;;;;;;;;;5066085;28;19932;-78
2023/04/28 07:02:31;;;;;;;;;;;;;;;;;;5062703;28;19989;-78
2023/04/28 07:04:58;;;;;;;;;;;15.60;99.90;;;;;;5068135;28;20014;-78
2023/04/28 07:07:25;;;;;;;;;;;;;;;;;;5068380;28;19932;-78
2023/04/28 07:09:52;;;;;;;;;;;;;;;;;;5065850;28;19939;-79
2023/04/28 07:12:20;;;;;;;;;;;;;;;;;;5068515;28;19971;-79
2023/04/28 07:14:49;;;;;;;;;;;16.00;99.90;;;;;;5087182;28;19932;-79
2023/04/28 07:17:18;;;;;;;;;;;;;;;;;;5086208;28;19934;-79
2023/04/28 07:19:50;;;;;;;;;;;;;;;;;;5096042;28;19936;-78
2023/04/28 07:22:17;;;;;;;;;;;;;;;;;;5086148;28;19924;-80
2023/04/28 07:24:46;;;;;;;;;;;;;;;;;;5084183;28;19932;-81
2023/04/28 07:27:13;;;;;;;;;;;;;;;;;;5090702;28;19954;-78
2023/04/28 07:29:40;;;;;;;;;;;;;;;;;;5093774;28;19928;-78
2023/04/28 07:32:09;;;;;;;;;;;17.00;99.90;;;;;;5077386;28;19931;-79
2023/04/28 07:34:37;;;;;;;;;;;;;;;;;;5096572;28;19928;-79
2023/04/28 07:37:05;;;;;;;;;;;16.30;99.90;;;;;;5097851;28;20363;-79
2023/04/28 07:39:33;;;;;;;;;;;16.50;99.90;;;;;;5078834;28;19958;-79
2023/04/28 07:42:01;;;;;;;;;;;;;;;;;;5093884;28;20042;-78
2023/04/28 07:44:28;;;;;;;;;;;;;;;;;;5081302;28;19939;-83
2023/04/28 07:46:57;;;;;;;;;;;16.10;99.90;;;;;;5082648;28;19932;-84
2023/04/28 07:49:26;;;;;;;;;;;15.90;99.90;;;;;;5087289;28;19924;-84
2023/04/28 07:51:55;;;;;;;;;;;;;;;;;;5081354;28;19978;-84
2023/04/28 07:54:26;;;;;;;;;;;;;;;;;;5098422;28;19927;-80
2023/04/28 07:56:53;;;;;;;;;;;;;;;;;;5098066;28;19939;-79
2023/04/28 07:59:29;;;;;;;;;;;16.10;99.90;;;;;;5077228;28;19928;-81
2023/04/28 08:01:58;;;;;;;;;;;;;;;;;;5078418;28;20295;-84
2023/04/28 08:04:30;;;;;;;;;;;16.30;99.90;;;;;;5084751;28;19964;-85
2023/04/28 08:06:59;;;;;;;;;;;;;;;;;;5085031;28;19924;-85
2023/04/28 08:09:26;;;;;;;;;;;;;;;;;;5077673;28;20238;-81
2023/04/28 08:11:53;;;;;;;;;;;;;;;;;;5081191;28;20003;-81
2023/04/28 08:14:21;;;;;;;;;;;16.70;99.90;;;;;;5076043;28;19924;-81
2023/04/28 08:16:48;;;;;;;;;;;;;;;;;;5078158;28;19928;-81
2023/04/28 08:19:15;;;;;;;;;;;;;;;;;;5091631;28;19928;-81
2023/04/28 08:21:42;;;;;;;;;;;;;;;;;;5097959;28;19932;-82
2023/04/28 08:24:12;;;;;;;;;;;17.50;99.90;;;;;;5097380;28;19928;-81
2023/04/28 08:26:39;;;;;;;;;;;;;;;;;;5091932;28;19932;-81
2023/04/28 08:29:06;;;;;;;;;;;;;;;;;;5078749;28;19939;-83
2023/04/28 08:31:33;;;;;;;;;;;;;;;;;;5088961;28;19931;-81
2023/04/28 08:34:01;;;;;;;;;;;;;;;;;;5080177;28;19973;-81
2023/04/28 08:36:31;;;;;;;;;;;17.40;99.90;;;;;;5079949;28;20599;-82
2023/04/28 08:38:58;;;;;;;;;;;17.50;99.90;;;;;;5080099;28;19934;-81
2023/04/28 08:41:26;;;;;;;;;;;;;;;;;;5078059;28;20018;-81
2023/04/28 08:43:54;;;;;;;;;;;;;;;;;;5079410;28;20307;-81
2023/04/28 08:46:23;;;;;;;;;;;18.30;99.90;;;;;;5079134;28;19924;-81
2023/04/28 08:48:51;;;;;;;;;;;18.40;99.90;;;;;;5080330;28;19928;-82
2023/04/28 08:51:19;;;;;;;;;;;;;;;;;;5081368;28;19947;-81
2023/04/28 08:53:46;;;;;;;;;;;;;;;;;;5079766;28;19931;-81
2023/04/28 08:56:15;;;;;;;;;;;18.50;99.90;;;;;;5087866;28;19935;-82
2023/04/28 08:58:43;;;;;;;;;;;;;;;;;;5075142;28;20441;-81
2023/04/28 09:01:11;;;;;;;;;;;;;;;;;;5059446;28;20041;-80
2023/04/28 09:03:39;;;;;;;;;;;;;;;;;;5060145;28;19924;-81
2023/04/28 09:06:06;;;;;;;;;;;;;;;;;;5059640;28;19931;-81
2023/04/28 09:08:33;;;;;;;;;;;;;;;;;;5075903;28;20567;-82
2023/04/28 09:11:02;;;;;;;;;;;;;;;;;;5087429;28;20362;-82
2023/04/28 09:13:30;;;;;;;;;;;;;;;;;;5083404;28;19954;-81
2023/04/28 09:15:58;;;;;;;;;;;;;;;;;;5093806;28;20019;-82
2023/04/28 09:18:25;;;;;;;;;;;;;;;;;;5075411;28;19931;-81
2023/04/28 09:21:02;;;;;;;;;;;18.30;99.90;;;;;;5097448;28;19930;-82
2023/04/28 09:23:30;;;;;;;;;;;;;;;;;;5075061;28;19940;-82
2023/04/28 09:26:00;;;;;;;;;;;18.30;99.90;;;;;;5075820;28;19932;-82
2023/04/28 09:28:28;;;;;;;;;;;;;;;;;;5075157;28;19942;-81
2023/04/28 09:30:55;;;;;;;;;;;;;;;;;;5076542;28;19959;-82
2023/04/28 09:33:23;;;;;;;;;;;;;;;;;;5075603;28;19971;-81
2023/04/28 09:35:50;;;;;;;;;;;18.30;99.90;;;;;;5077931;28;19973;-81
2023/04/28 09:38:17;;;;;;;;;;;;;;;;;;5094479;28;19981;-81
2023/04/28 09:40:44;;;;;;;;;;;;;;;;;;5098183;28;19934;-81
2023/04/28 09:43:12;;;;;;;;;;;;;;;;;;5082131;28;19935;-81
2023/04/28 09:45:41;;;;;;;;;;;;;;;;;;5080109;28;20014;-80
2023/04/28 09:48:08;;;;;;;;;;;;;;;;;;5079997;28;20035;-81
2023/04/28 09:50:41;;;;;;;;;;;19.00;99.90;;;;;;5080977;28;19931;-82
2023/04/28 09:53:11;;;;;;;;;;;19.30;99.90;;;;;;5082176;28;19924;-81
2023/04/28 09:55:41;;;;;;;;;;;19.60;99.90;;;;;;5100729;28;19982;-80
2023/04/28 09:58:09;;;;;;;;;;;19.90;99.90;;;;;;5081880;28;19924;-80
2023/04/28 10:00:39;;;;;;;;;;;20.00;99.90;;;;;;5099912;28;19924;-80
2023/04/28 10:03:09;;;;;;;;;;;20.00;99.90;;;;;;5080808;28;20321;-80
2023/04/28 10:05:37;;;;;;;;;;;;;;;;;;5079880;28;19924;-80
2023/04/28 10:08:14;;;;;;;;;;;19.40;99.90;;;;;;5097796;28;19939;-80
2023/04/28 10:10:53;;;;;;;;;;;19.30;99.90;;;;;;5097541;28;19931;-80
2023/04/28 10:13:25;;;;;;;;;;;;;;;;;;5078738;28;19928;-80
2023/04/28 10:15:54;;;;;;;;;;;;;;;;;;5097779;28;19928;-80
2023/04/28 10:18:23;;;;;;;;;;;19.00;99.90;;;;;;5081224;28;19928;-80
2023/04/28 10:20:54;;;;;;;;;;;;;;;;;;5080589;28;19947;-81
2023/04/28 10:23:24;;;;;;;;;;;;;;;;;;5080989;28;19959;-80
2023/04/28 10:25:58;;;;;;;;;;;18.40;99.90;;;;;;5081319;28;20432;-81
2023/04/28 10:28:33;;;;;;;;;;;18.40;99.90;;;;;;5081261;28;19924;-80
2023/04/28 10:31:01;;;;;;;;;;;;;;;;;;5080501;28;19935;-80
2023/04/28 10:33:38;;;;;;;;;;;18.20;99.90;;;;;;5098700;28;20006;-81
2023/04/28 10:38:57;;;;;;;;;;;;;;;;;;5096239;28;19932;-82
2023/04/28 10:41:28;;;;;;;;;;;;;;;;;;5103006;28;19924;-81
2023/04/28 10:44:24;;;;;;;;;;;18.00;99.90;;;;;;5083012;28;19928;-81
2023/04/28 10:46:55;;;;;;;;;;;;;;;;;;5084113;28;19931;-81
2023/04/28 10:49:57;;;;;;;;;;;18.20;99.90;;;;;;5102742;28;19935;-82
2023/04/28 10:52:26;;;;;;;;;;;;;;;;;;5102708;28;20586;-82
2023/04/28 10:55:27;;;;;;;;;;;17.90;99.90;;;;;;5085605;28;19969;-82
2023/04/28 10:58:18;;;;;;;;;;;17.70;99.90;;;;;;5067503;28;19984;-82
2023/04/28 11:00:50;;;;;;;;;;;;;;;;;;5068258;28;20392;-82
2023/04/28 11:03:31;;;;;;;;;;;;;;;;;;5080966;28;19928;-79
2023/04/28 11:06:06;;;;;;;;;;;;;;;;;;5069415;28;19935;-81
2023/04/28 11:08:38;;;;;;;;;;;17.40;99.90;;;;;;5094411;28;19928;-80
2023/04/28 11:11:14;;;;;;;;;;;;;;;;;;5078457;28;20238;-81
2023/04/28 11:13:46;;;;;;;;;;;;;;;;;;5097789;28;19924;-82
2023/04/28 11:16:26;;;;;;;;;;;17.40;99.90;;;;;;5098696;28;20460;-82
2023/04/28 11:19:06;;;;;;;;;;;;;;;;;;5082553;28;20369;-81
2023/04/28 11:21:41;;;;;;;;;;;;;;;;;;5099284;28;19955;-81
2023/04/28 11:24:09;;;;;;;;;;;;;;;;;;5081140;28;19956;-81
2023/04/28 11:26:36;;;;;;;;;;;;;;;;;;5080481;28;20403;-82
2023/04/28 11:29:06;;;;;;;;;;;;;;;;;;5082079;28;19924;-81
2023/04/28 11:31:39;;;;;;;;;;;;;;;;;;5081036;28;19968;-82
2023/04/28 11:34:10;;;;;;;;;;;;;;;;;;5079574;28;19985;-82
2023/04/28 11:36:52;;;;;;;;;;;17.20;99.90;;;;;;5080456;28;19946;-81
2023/04/28 11:39:29;;;;;;;;;;;;;;;;;;5079052;28;20564;-82
2023/04/28 11:42:10;;;;;;;;;;;17.10;99.90;;;;;;5070607;28;19928;-81
2023/04/28 11:44:41;;;;;;;;;;;17.10;99.90;;;;;;5098193;28;20410;-81
2023/04/28 11:47:12;;;;;;;;;;;;;;;;;;5080017;28;19970;-81
2023/04/28 11:49:50;;;;;;;;;;;;;;;;;;5095311;28;20220;-81
2023/04/28 11:52:26;;;;;;;;;;;;;;;;;;5096584;28;20588;-82
2023/04/28 11:55:06;;;;;;;;;;;16.80;99.90;;;;;;5097772;28;19928;-81
2023/04/28 11:57:45;;;;;;;;;;;16.80;99.90;;;;;;5079876;28;19928;-81
2023/04/28 12:00:25;;;;;;;;;;;16.70;99.90;;;;;;5079530;28;20406;-81
2023/04/28 12:03:07;;;;;;;;;;;16.80;99.90;;;;;;5079654;28;19924;-81
2023/04/28 12:05:44;;;;;;;;;;;17.00;99.90;;;;;;5079365;28;20454;-81
2023/04/28 12:08:14;;;;;;;;;;;;;;;;;;5060385;28;19938;-81
2023/04/28 12:10:44;;;;;;;;;;;;;;;;;;5060743;28;19928;-81
2023/04/28 12:13:14;;;;;;;;;;;;;;;;;;5078404;28;19928;-82
2023/04/28 12:15:43;;;;;;;;;;;;;;;;;;5078501;28;20014;-82
2023/04/28 12:18:15;;;;;;;;;;;;;;;;;;5059499;28;19928;-81
2023/04/28 12:20:50;;;;;;;;;;;;;;;;;;5076359;28;19931;-81
2023/04/28 12:23:20;;;;;;;;;;;;;;;;;;5097806;28;20027;-82
2023/04/28 12:25:57;;;;;;;;;;;19.10;99.90;;;;;;5079693;28;19935;-82
2023/04/28 12:28:38;;;;;;;;;;;19.30;99.90;;;;;;5080541;28;19999;-82
2023/04/28 12:31:08;;;;;;;;;;;;;;;;;;5077507;28;19930;-82
2023/04/28 12:33:41;;;;;;;;;;;;;;;;;;5079748;28;19939;-82
2023/04/28 12:36:12;;;;;;;;;;;;;;;;;;5077059;28;20404;-81
2023/04/28 12:38:42;;;;;;;;;;;;;;;;;;5084416;28;19974;-82
2023/04/28 12:41:09;;;;;;;;;;;;;;;;;;5080233;28;19924;-81
2023/04/28 12:43:39;;;;;;;;;;;21.30;99.90;;;;;;5096382;28;19928;-81
2023/04/28 12:46:07;;;;;;;;;;;21.40;99.90;;;;;;5096404;28;19939;-81
2023/04/28 12:48:34;;;;;;;;;;;;;;;;;;5091286;28;20013;-80
2023/04/28 12:51:01;;;;;;;;;;;21.10;99.90;;;;;;5096460;28;19924;-82
2023/04/28 12:53:29;;;;;;;;;;;;;;;;;;5079115;28;19935;-81
2023/04/28 12:55:56;;;;;;;;;;;21.00;99.90;;;;;;5078368;28;20355;-82
2023/04/28 12:58:23;;;;;;;;;;;;;;;;;;5091841;28;19924;-82
2023/04/28 13:00:50;;;;;;;;;;;;;;;;;;5077216;28;19985;-81
2023/04/28 13:03:20;;;;;;;;;;;;;;;;;;5080320;28;19925;-80
2023/04/28 13:05:47;;;;;;;;;;;;;;;;;;5094044;28;19928;-81
2023/04/28 13:08:14;;;;;;;;;;;;;;;;;;5087680;28;19996;-81
2023/04/28 13:10:44;;;;;;;;;;;22.40;99.90;;;;;;5081026;28;19951;-80
2023/04/28 13:13:11;;;;;;;;;;;22.30;99.90;;;;;;5088094;28;20601;-81
2023/04/28 13:15:38;;;;;;;;;;;22.30;99.90;;;;;;5078102;28;19928;-82
2023/04/28 13:18:05;;;;;;;;;;;;;;;;;;5096204;28;19934;-81
2023/04/28 13:20:32;;;;;;;;;;;21.70;99.90;;;;;;5080107;28;19923;-82
2023/04/28 13:22:59;;;;;;;;;;;;;;;;;;5096421;28;20512;-82
2023/04/28 13:25:26;;;;;;;;;;;;;;;;;;5080731;28;19924;-82
2023/04/28 13:27:53;;;;;;;;;;;;;;;;;;5096849;28;19928;-81
2023/04/28 13:30:21;;;;;;;;;;;21.50;99.90;;;;;;5079538;28;19951;-81
2023/04/28 13:32:50;;;;;;;;;;;;;;;;;;5092182;28;19973;-81
2023/04/28 13:35:18;;;;;;;;;;;;;;;;;;5077432;28;19947;-81
2023/04/28 13:37:45;;;;;;;;;;;;;;;;;;5083363;28;19950;-81
2023/04/28 13:40:13;;;;;;;;;;;;;;;;;;5078725;28;19928;-81
2023/04/28 13:42:40;;;;;;;;;;;;;;;;;;5095283;28;19928;-81
2023/04/28 13:45:07;;;;;;;;;;;;;;;;;;5096196;28;20015;-81
2023/04/28 13:47:34;;;;;;;;;;;;;;;;;;5097032;28;20378;-81
2023/04/28 13:50:03;;;;;;;;;;;20.50;99.90;;;;;;5079303;28;20353;-81
2023/04/28 13:52:30;;;;;;;;;;;20.90;99.90;;;;;;5079755;28;19939;-81
2023/04/28 13:54:57;;;;;;;;;;;;;;;;;;5079511;28;20442;-82
2023/04/28 13:57:24;;;;;;;;;;;21.40;99.90;;;;;;5080198;28;19928;-82
2023/04/28 13:59:51;;;;;;;;;;;;;;;;;;5078368;28;20467;-81
2023/04/28 14:02:18;;;;;;;;;;;21.70;99.90;;;;;;5077262;28;19928;-82
2023/04/28 14:04:47;;;;;;;;;;;;;;;;;;5092241;28;19924;-82
2023/04/28 14:07:15;;;;;;;;;;;;;;;;;;5078765;28;19977;-82
2023/04/28 14:09:42;;;;;;;;;;;;;;;;;;5082192;28;20394;-82
2023/04/28 14:12:12;;;;;;;;;;;;;;;;;;5087665;28;19919;-82
2023/04/28 14:14:40;;;;;;;;;;;;;;;;;;5077516;28;19928;-82
2023/04/28 14:17:07;;;;;;;;;;;;;;;;;;5078267;28;19931;-82
2023/04/28 14:19:35;;;;;;;;;;;21.70;99.90;;;;;;5077578;28;19939;-82
2023/04/28 14:22:02;;;;;;;;;;;22.10;99.90;;;;;;5079674;28;19928;-82
2023/04/28 14:24:29;;;;;;;;;;;;;;;;;;5079100;28;20018;-82
2023/04/28 14:26:56;;;;;;;;;;;22.00;99.90;;;;;;5080487;28;19934;-82
2023/04/28 14:29:23;;;;;;;;;;;21.80;99.90;;;;;;5079058;28;19925;-81
2023/04/28 14:31:50;;;;;;;;;;;21.60;99.90;;;;;;5076573;28;19932;-82
2023/04/28 14:34:17;;;;;;;;;;;21.40;99.90;;;;;;5093546;28;19931;-82
2023/04/28 14:36:47;;;;;;;;;;;21.30;99.90;;;;;;5079973;28;20258;-82
2023/04/28 14:39:14;;;;;;;;;;;;;;;;;;5074293;28;20315;-82
2023/04/28 14:41:41;;;;;;;;;;;20.70;99.90;;;;;;5093965;28;19924;-81
2023/04/28 14:44:10;;;;;;;;;;;;;;;;;;5098186;28;19955;-82
2023/04/28 14:46:37;;;;;;;;;;;;;;;;;;5097141;28;20036;-82
2023/04/28 14:49:05;;;;;;;;;;;;;;;;;;5075482;28;19978;-81
2023/04/28 14:51:31;;;;;;;;;;;20.50;99.90;;;;;;5089407;28;20000;-81
2023/04/28 14:53:59;;;;;;;;;;;;;;;;;;5100620;28;19925;-82
2023/04/28 14:56:27;;;;;;;;;;;20.40;99.90;;;;;;5080922;28;19934;-82
2023/04/28 14:58:54;;;;;;;;;;;;;;;;;;5093947;28;19928;-82
2023/04/28 15:01:21;;;;;;;;;;;20.20;99.90;;;;;;5074061;28;19963;-82
2023/04/28 15:03:48;;;;;;;;;;;;;;;;;;5074240;28;19955;-82
2023/04/28 15:06:15;;;;;;;;;;;19.70;99.90;;;;;;5096887;28;20373;-82
2023/04/28 15:08:42;;;;;;;;;;;19.40;99.90;;;;;;5086413;28;20457;-81
2023/04/28 15:11:09;;;;;;;;;;;;;;;;;;5075363;28;20034;-80
2023/04/28 15:13:36;;;;;;;;;;;;;;;;;;5056914;28;19928;-80
2023/04/28 15:16:04;;;;;;;;;;;;;;;;;;5094378;28;19928;-81
2023/04/28 15:18:33;;;;;;;;;;;18.50;99.90;;;;;;5076157;28;19955;-81
2023/04/28 15:20:59;;;;;;;;;;;18.20;99.90;;;;;;5076739;28;19939;-80
2023/04/28 15:23:27;;;;;;;;;;;;;;;;;;5094912;28;19932;-79
2023/04/28 15:25:53;;;;;;;;;;;17.80;99.90;;;;;;5080867;28;19928;-80
2023/04/28 15:28:21;;;;;;;;;;;;;;;;;;5100175;28;19924;-81
2023/04/28 15:30:48;;;;;;;;;;;;;;;;;;5091230;28;19943;-81
2023/04/28 15:33:17;;;;;;;;;;;;;;;;;;5098283;28;19954;-81
2023/04/28 15:35:44;;;;;;;;;;;;;;;;;;5097202;28;19928;-80
2023/04/28 15:38:11;;;;;;;;;;;;;;;;;;5095815;28;19978;-82
2023/04/28 15:40:39;;;;;;;;;;;;;;;;;;5089382;28;19932;-80
2023/04/28 15:43:06;;;;;;;;;;;;;;;;;;5080187;28;19934;-81
2023/04/28 15:45:35;;;;;;;;;;;17.10;99.90;;;;;;5080703;28;19928;-80
2023/04/28 15:48:03;;;;;;;;;;;;;;;;;;5079916;28;19932;-81
2023/04/28 15:50:31;;;;;;;;;;;;;;;;;;5096847;28;19924;-80
2023/04/28 15:52:58;;;;;;;;;;;20.50;99.90;;;;;;5081653;28;19938;-80
2023/04/28 15:55:25;;;;;;;;;;;;;;;;;;5080807;28;19935;-80
2023/04/28 15:57:53;;;;;;;;;;;;;;;;;;5097971;28;19950;-80
2023/04/28 16:00:20;;;;;;;;;;;;;;;;;;5077861;28;19928;-80